createdAt,value
2019-05-01T00:05:27.767Z,99541.09
2019-05-01T00:11:32.416Z,99537.67
2019-05-01T00:17:37.061Z,99526.32
2019-05-01T00:23:41.630Z,99523.34
2019-05-01T00:29:46.302Z,99521.33
2019-05-01T00:35:50.888Z,99510.58
2019-05-01T00:41:55.443Z,99510.27
2019-05-01T00:48:00.024Z,99501.69
2019-05-01T00:54:04.747Z,99497.47
2019-05-01T01:00:27.752Z,99496.95
2019-05-01T01:06:32.581Z,99487.42
2019-05-01T01:12:37.204Z,99481.13
2019-05-01T01:18:41.768Z,99477.72
2019-05-01T01:24:46.389Z,99471.72
2019-05-01T01:30:56.451Z,99475.64
2019-05-01T01:36:57.529Z,99472.49
2019-05-01T01:43:19.972Z,99469.59
2019-05-01T01:49:24.664Z,99466.48
2019-05-01T01:55:29.404Z,99462.97
2019-05-01T02:01:38.582Z,99460.11
2019-05-01T02:07:43.674Z,99451.54
2019-05-01T02:13:48.397Z,99443.56
2019-05-01T02:19:53.101Z,99443.83
2019-05-01T02:25:57.651Z,99443.78
2019-05-01T02:32:02.825Z,99439.49
2019-05-01T02:38:09.222Z,99433.30
2019-05-01T02:44:21.389Z,99429.19
2019-05-01T02:50:28.804Z,99423.86
2019-05-01T02:56:48.101Z,99423.26
2019-05-01T03:02:52.979Z,99416.84
2019-05-01T03:09:00.122Z,99411.12
2019-05-01T03:15:07.063Z,99406.84
2019-05-01T03:21:32.208Z,99404.84
2019-05-01T03:27:36.903Z,99406.30
2019-05-01T03:33:42.673Z,99404.28
2019-05-01T03:39:47.611Z,99400.83
2019-05-01T03:45:53.244Z,99413.31
2019-05-01T03:51:59.925Z,99406.63
2019-05-01T03:58:05.133Z,99405.45
2019-05-01T04:04:17.784Z,99411.16
2019-05-01T04:10:22.675Z,99413.02
2019-05-01T04:16:28.256Z,99409.38
2019-05-01T04:22:33.595Z,99411.92
2019-05-01T04:28:56.459Z,99410.51
2019-05-01T04:35:17.965Z,99421.16
2019-05-01T04:41:22.596Z,99409.62
2019-05-01T04:47:27.444Z,99404.26
2019-05-01T04:53:32.051Z,99398.73
2019-05-01T04:59:36.697Z,99406.73
2019-05-01T05:05:41.958Z,99405.76
2019-05-01T05:11:48.289Z,99410.62
2019-05-01T05:17:53.135Z,99406.88
2019-05-01T05:23:57.759Z,99401.94
2019-05-01T05:30:02.659Z,99410.64
2019-05-01T05:36:09.258Z,99414.27
2019-05-01T05:42:14.339Z,99404.36
2019-05-01T05:48:18.966Z,99403.34
2019-05-01T05:54:31.156Z,99409.56
2019-05-01T06:00:39.330Z,99413.73
2019-05-01T06:06:49.978Z,99423.09
2019-05-01T06:12:57.911Z,99424.74
2019-05-01T06:19:04.105Z,99420.92
2019-05-01T06:25:21.319Z,99421.89
2019-05-01T06:31:23.217Z,99421.27
2019-05-01T06:37:45.896Z,99417.19
2019-05-01T06:43:52.395Z,99418.88
2019-05-01T06:50:15.121Z,99416.59
2019-05-01T06:56:19.739Z,99404.66
2019-05-01T07:02:25.044Z,99415.25
2019-05-01T07:08:34.210Z,99410.02
2019-05-01T07:14:36.861Z,99413.47
2019-05-01T07:20:47.234Z,99416.53
2019-05-01T07:26:52.144Z,99412.47
2019-05-01T07:32:56.940Z,99412.55
2019-05-01T07:39:01.767Z,99414.21
2019-05-01T07:45:20.767Z,99404.46
2019-05-01T07:51:25.583Z,99403.89
2019-05-01T07:57:34.173Z,99401.17
2019-05-01T08:03:38.070Z,99401.66
2019-05-01T08:09:45.750Z,99405.19
2019-05-01T08:15:49.483Z,99403.91
2019-05-01T08:22:02.900Z,99398.80
2019-05-01T08:28:18.369Z,99398.75
2019-05-01T08:34:33.603Z,99398.53
2019-05-01T08:40:38.299Z,99395.29
2019-05-01T08:46:46.890Z,99399.72
2019-05-01T08:52:59.590Z,99399.80
2019-05-01T08:59:04.288Z,99391.58
2019-05-01T09:05:26.954Z,99395.09
2019-05-01T09:11:15.333Z,99391.77
2019-05-01T09:17:19.961Z,99380.73
2019-05-01T09:23:24.602Z,99382.33
2019-05-01T09:29:30.869Z,99377.05
2019-05-01T09:35:35.561Z,99375.58
2019-05-01T09:41:43.229Z,99372.36
2019-05-01T09:47:46.666Z,99370.89
2019-05-01T09:53:56.859Z,99368.69
2019-05-01T10:00:01.486Z,99369.53
2019-05-01T10:06:07.651Z,99364.81
2019-05-01T10:12:13.177Z,99364.30
2019-05-01T10:18:17.846Z,99354.28
2019-05-01T10:24:22.480Z,99355.13
2019-05-01T10:30:31.690Z,99347.33
2019-05-01T10:36:49.893Z,99338.26
2019-05-01T10:42:51.932Z,99330.30
2019-05-01T10:48:57.505Z,99324.27
2019-05-01T10:55:02.149Z,99332.55
2019-05-01T11:01:10.794Z,99316.81
2019-05-01T11:07:15.440Z,99311.73
2019-05-01T11:13:19.996Z,99310.66
2019-05-01T11:19:24.629Z,99310.95
2019-05-01T11:25:29.506Z,99311.75
2019-05-01T11:31:50.588Z,99299.16
2019-05-01T11:37:59.219Z,99295.94
2019-05-01T11:44:03.845Z,99288.77
2019-05-01T11:50:08.933Z,99276.03
2019-05-01T11:56:13.517Z,99280.90
2019-05-01T12:02:18.773Z,99272.59
2019-05-01T12:08:23.423Z,99269.13
2019-05-01T12:14:27.983Z,99264.34
2019-05-01T12:20:32.695Z,99256.03
2019-05-01T12:26:37.319Z,99254.45
2019-05-01T12:32:41.867Z,99247.42
2019-05-01T12:38:46.430Z,99244.22
2019-05-01T12:44:51.066Z,99238.70
2019-05-01T12:50:55.889Z,99229.66
2019-05-01T12:57:02.029Z,99227.27
2019-05-01T13:03:06.718Z,99226.36
2019-05-01T13:09:11.690Z,99220.22
2019-05-01T13:15:16.367Z,99215.61
2019-05-01T13:21:20.919Z,99212.73
2019-05-01T13:27:43.440Z,99216.47
2019-05-01T13:33:48.087Z,99201.72
2019-05-01T13:39:52.715Z,99192.33
2019-05-01T13:45:57.347Z,99186.06
2019-05-01T13:52:01.971Z,99182.66
2019-05-01T13:58:06.661Z,99176.05
2019-05-01T14:04:13.099Z,99171.25
2019-05-01T14:10:17.969Z,99164.98
2019-05-01T14:16:22.552Z,99145.45
2019-05-01T14:22:34.868Z,99148.91
2019-05-01T14:28:39.500Z,99138.66
2019-05-01T14:34:44.052Z,99137.08
2019-05-01T14:40:48.685Z,99123.53
2019-05-01T14:46:53.402Z,99116.50
2019-05-01T14:52:57.969Z,99112.89
2019-05-01T14:59:02.541Z,99104.36
2019-05-01T15:05:08.073Z,99098.79
2019-05-01T15:11:12.698Z,99094.45
2019-05-01T15:17:18.893Z,99092.06
2019-05-01T15:23:23.475Z,99091.86
2019-05-01T15:29:28.042Z,99090.55
2019-05-01T15:35:32.609Z,99083.66
2019-05-01T15:41:54.969Z,99074.33
2019-05-01T15:47:59.598Z,99071.47
2019-05-01T15:54:04.328Z,99066.85
2019-05-01T16:00:12.840Z,99063.02
2019-05-01T16:06:17.400Z,99059.64
2019-05-01T16:12:32.747Z,99054.08
2019-05-01T16:18:37.314Z,99058.76
2019-05-01T16:24:41.871Z,99054.44
2019-05-01T16:30:46.510Z,99046.50
2019-05-01T16:36:51.134Z,99031.35
2019-05-01T16:42:55.761Z,99030.09
2019-05-01T16:49:00.393Z,99026.97
2019-05-01T16:55:07.858Z,99020.53
2019-05-01T17:01:14.206Z,99018.02
2019-05-01T17:07:32.042Z,99012.71
2019-05-01T17:13:36.732Z,99010.37
2019-05-01T17:19:41.290Z,99012.09
2019-05-01T17:25:45.934Z,99009.23
2019-05-01T17:31:50.621Z,99008.95
2019-05-01T17:37:55.192Z,99007.63
2019-05-01T17:44:20.123Z,99006.03
2019-05-01T17:50:25.437Z,99000.41
2019-05-01T17:56:30.014Z,99003.47
2019-05-01T18:02:36.270Z,99001.23
2019-05-01T18:08:40.816Z,98998.98
2019-05-01T18:14:45.398Z,99006.24
2019-05-01T18:20:50.032Z,99004.33
2019-05-01T18:26:59.200Z,99001.91
2019-05-01T18:33:04.215Z,99009.76
2019-05-01T18:39:28.093Z,99008.29
2019-05-01T18:45:51.950Z,99004.33
2019-05-01T18:51:56.511Z,99002.91
2019-05-01T18:58:01.071Z,98999.45
2019-05-01T19:04:06.086Z,99011.76
2019-05-01T19:10:11.089Z,99010.69
2019-05-01T19:16:15.807Z,99010.54
2019-05-01T19:22:20.353Z,99010.63
2019-05-01T19:28:25.084Z,99012.60
2019-05-01T19:34:29.647Z,99012.84
2019-05-01T19:40:34.245Z,99011.54
2019-05-01T19:46:38.885Z,99004.92
2019-05-01T19:52:43.585Z,99001.64
2019-05-01T19:58:48.330Z,98996.59
2019-05-01T20:04:52.934Z,98999.81
2019-05-01T20:10:57.536Z,99001.65
2019-05-01T20:17:04.813Z,98998.20
2019-05-01T20:23:08.853Z,98992.21
2019-05-01T20:29:13.420Z,98991.41
2019-05-01T20:35:18.039Z,98985.80
2019-05-01T20:41:22.607Z,98985.57
2019-05-01T20:47:35.078Z,98976.09
2019-05-01T20:53:33.519Z,98977.33
2019-05-01T20:59:39.168Z,98973.94
2019-05-01T21:05:48.453Z,98969.79
2019-05-01T21:12:05.073Z,98965.11
2019-05-01T21:18:03.651Z,98970.94
2019-05-01T21:24:08.267Z,98968.16
2019-05-01T21:30:13.905Z,98969.28
2019-05-01T21:36:18.552Z,98973.70
2019-05-01T21:42:24.474Z,98965.44
2019-05-01T21:48:29.281Z,98966.44
2019-05-01T21:54:33.847Z,98967.67
2019-05-01T22:00:40.611Z,98965.59
2019-05-01T22:06:46.855Z,98962.02
2019-05-01T22:12:51.904Z,98958.21
2019-05-01T22:18:56.374Z,98951.16
2019-05-01T22:25:02.587Z,98955.78
2019-05-01T22:31:24.798Z,98957.55
2019-05-01T22:37:29.428Z,98965.09
2019-05-01T22:43:34.342Z,98957.80
2019-05-01T22:49:38.961Z,98951.72
2019-05-01T22:55:43.515Z,98947.50
2019-05-01T23:01:52.974Z,98936.27
2019-05-01T23:07:57.159Z,98930.09
2019-05-01T23:14:02.118Z,98923.69
2019-05-01T23:20:09.446Z,98923.56
2019-05-01T23:26:16.651Z,98911.52
2019-05-01T23:32:20.435Z,98908.41
2019-05-01T23:38:24.984Z,98904.20
2019-05-01T23:44:29.532Z,98892.53
2019-05-01T23:50:34.146Z,98897.13
2019-05-01T23:56:38.693Z,98881.58
